sensor_id;sensor_type;location;lat;lon;timestamp;P1;durP1;ratioP1;P2;durP2;ratioP2
68076;SDS011;54866;53.458;14.540;2023-02-08T00:01:38;30.70;;;18.40;;
68076;SDS011;54866;53.458;14.540;2023-02-08T00:04:08;31.30;;;17.50;;
68076;SDS011;54866;53.458;14.540;2023-02-08T00:06:37;29.30;;;16.20;;
68076;SDS011;54866;53.458;14.540;2023-02-08T00:09:07;28.80;;;17.40;;
68076;SDS011;54866;53.458;14.540;2023-02-08T00:11:36;26.60;;;15.70;;
68076;SDS011;54866;53.458;14.540;2023-02-08T00:14:06;24.80;;;16.00;;
68076;SDS011;54866;53.458;14.540;2023-02-08T00:16:35;29.90;;;17.90;;
68076;SDS011;54866;53.458;14.540;2023-02-08T00:19:04;33.20;;;18.00;;
68076;SDS011;54866;53.458;14.540;2023-02-08T00:21:33;25.20;;;16.50;;
68076;SDS011;54866;53.458;14.540;2023-02-08T00:24:03;31.10;;;16.90;;
68076;SDS011;54866;53.458;14.540;2023-02-08T00:26:33;26.00;;;16.70;;
68076;SDS011;54866;53.458;14.540;2023-02-08T00:29:02;30.20;;;17.00;;
68076;SDS011;54866;53.458;14.540;2023-02-08T00:31:31;31.40;;;17.00;;
68076;SDS011;54866;53.458;14.540;2023-02-08T00:34:01;27.10;;;14.80;;
68076;SDS011;54866;53.458;14.540;2023-02-08T00:36:30;24.60;;;15.40;;
68076;SDS011;54866;53.458;14.540;2023-02-08T00:38:59;28.10;;;18.30;;
68076;SDS011;54866;53.458;14.540;2023-02-08T00:41:28;28.50;;;16.80;;
68076;SDS011;54866;53.458;14.540;2023-02-08T00:43:58;29.50;;;15.30;;
68076;SDS011;54866;53.458;14.540;2023-02-08T00:46:27;25.40;;;14.90;;
68076;SDS011;54866;53.458;14.540;2023-02-08T00:48:56;28.60;;;14.80;;
68076;SDS011;54866;53.458;14.540;2023-02-08T00:51:26;22.70;;;13.70;;
68076;SDS011;54866;53.458;14.540;2023-02-08T00:53:55;21.30;;;13.30;;
68076;SDS011;54866;53.458;14.540;2023-02-08T00:56:24;28.20;;;15.30;;
68076;SDS011;54866;53.458;14.540;2023-02-08T00:58:54;23.10;;;15.20;;
68076;SDS011;54866;53.458;14.540;2023-02-08T01:01:23;26.10;;;14.70;;
68076;SDS011;54866;53.458;14.540;2023-02-08T01:03:52;28.20;;;14.50;;
68076;SDS011;54866;53.458;14.540;2023-02-08T01:06:22;30.80;;;15.90;;
68076;SDS011;54866;53.458;14.540;2023-02-08T01:08:51;27.00;;;14.40;;
68076;SDS011;54866;53.458;14.540;2023-02-08T01:11:21;20.60;;;14.00;;
68076;SDS011;54866;53.458;14.540;2023-02-08T01:13:52;24.90;;;13.40;;
68076;SDS011;54866;53.458;14.540;2023-02-08T01:16:23;22.20;;;13.50;;
68076;SDS011;54866;53.458;14.540;2023-02-08T01:18:55;23.70;;;14.00;;
68076;SDS011;54866;53.458;14.540;2023-02-08T01:21:26;24.80;;;15.30;;
68076;SDS011;54866;53.458;14.540;2023-02-08T01:23:57;26.40;;;15.60;;
68076;SDS011;54866;53.458;14.540;2023-02-08T01:26:27;23.80;;;15.20;;
68076;SDS011;54866;53.458;14.540;2023-02-08T01:28:57;23.60;;;13.80;;
68076;SDS011;54866;53.458;14.540;2023-02-08T01:31:27;25.30;;;13.90;;
68076;SDS011;54866;53.458;14.540;2023-02-08T01:33:58;24.80;;;14.30;;
68076;SDS011;54866;53.458;14.540;2023-02-08T01:36:28;23.30;;;13.70;;
68076;SDS011;54866;53.458;14.540;2023-02-08T01:38:58;18.20;;;12.00;;
68076;SDS011;54866;53.458;14.540;2023-02-08T01:41:28;24.50;;;15.70;;
68076;SDS011;54866;53.458;14.540;2023-02-08T01:44:04;25.30;;;14.90;;
68076;SDS011;54866;53.458;14.540;2023-02-08T01:46:47;26.40;;;16.00;;
68076;SDS011;54866;53.458;14.540;2023-02-08T01:49:17;27.50;;;16.00;;
68076;SDS011;54866;53.458;14.540;2023-02-08T01:51:52;25.60;;;17.00;;
68076;SDS011;54866;53.458;14.540;2023-02-08T01:54:26;31.80;;;16.60;;
68076;SDS011;54866;53.458;14.540;2023-02-08T01:59:28;28.20;;;17.00;;
68076;SDS011;54866;53.458;14.540;2023-02-08T02:02:02;29.40;;;17.50;;
68076;SDS011;54866;53.458;14.540;2023-02-08T02:04:34;32.20;;;19.00;;
68076;SDS011;54866;53.458;14.540;2023-02-08T02:07:04;32.80;;;21.10;;
68076;SDS011;54866;53.458;14.540;2023-02-08T02:09:35;29.60;;;19.30;;
68076;SDS011;54866;53.458;14.540;2023-02-08T02:12:08;38.60;;;23.20;;
68076;SDS011;54866;53.458;14.540;2023-02-08T02:14:39;37.60;;;21.10;;
68076;SDS011;54866;53.458;14.540;2023-02-08T02:17:10;35.20;;;21.60;;
68076;SDS011;54866;53.458;14.540;2023-02-08T02:19:44;38.60;;;21.40;;
68076;SDS011;54866;53.458;14.540;2023-02-08T02:22:29;35.90;;;22.10;;
68076;SDS011;54866;53.458;14.540;2023-02-08T02:25:22;38.70;;;22.20;;
68076;SDS011;54866;53.458;14.540;2023-02-08T02:28:20;41.20;;;22.70;;
68076;SDS011;54866;53.458;14.540;2023-02-08T02:34:03;33.30;;;20.70;;
68076;SDS011;54866;53.458;14.540;2023-02-08T02:36:37;41.00;;;21.80;;
68076;SDS011;54866;53.458;14.540;2023-02-08T02:39:17;37.60;;;20.80;;
68076;SDS011;54866;53.458;14.540;2023-02-08T02:41:53;38.10;;;23.00;;
68076;SDS011;54866;53.458;14.540;2023-02-08T02:44:57;37.00;;;20.70;;
68076;SDS011;54866;53.458;14.540;2023-02-08T02:47:36;36.40;;;22.10;;
68076;SDS011;54866;53.458;14.540;2023-02-08T02:50:13;40.40;;;22.90;;
68076;SDS011;54866;53.458;14.540;2023-02-08T02:52:51;35.90;;;21.00;;
68076;SDS011;54866;53.458;14.540;2023-02-08T02:55:27;36.40;;;20.40;;
68076;SDS011;54866;53.458;14.540;2023-02-08T02:58:01;39.80;;;20.90;;
68076;SDS011;54866;53.458;14.540;2023-02-08T03:00:32;33.20;;;19.90;;
68076;SDS011;54866;53.458;14.540;2023-02-08T03:03:02;37.90;;;21.30;;
68076;SDS011;54866;53.458;14.540;2023-02-08T03:05:32;40.50;;;22.30;;
68076;SDS011;54866;53.458;14.540;2023-02-08T03:08:06;39.00;;;22.80;;
68076;SDS011;54866;53.458;14.540;2023-02-08T03:11:02;36.30;;;22.70;;
68076;SDS011;54866;53.458;14.540;2023-02-08T03:16:35;36.20;;;21.30;;
68076;SDS011;54866;53.458;14.540;2023-02-08T03:19:16;35.20;;;20.30;;
68076;SDS011;54866;53.458;14.540;2023-02-08T03:21:51;35.50;;;19.90;;
68076;SDS011;54866;53.458;14.540;2023-02-08T03:24:27;32.70;;;18.30;;
68076;SDS011;54866;53.458;14.540;2023-02-08T03:27:00;34.70;;;19.30;;
68076;SDS011;54866;53.458;14.540;2023-02-08T03:29:41;42.40;;;21.40;;
68076;SDS011;54866;53.458;14.540;2023-02-08T03:32:20;33.00;;;18.30;;
68076;SDS011;54866;53.458;14.540;2023-02-08T03:34:54;28.90;;;18.10;;
68076;SDS011;54866;53.458;14.540;2023-02-08T03:37:30;33.40;;;18.40;;
68076;SDS011;54866;53.458;14.540;2023-02-08T03:40:05;34.70;;;19.00;;
68076;SDS011;54866;53.458;14.540;2023-02-08T03:42:38;31.80;;;18.10;;
68076;SDS011;54866;53.458;14.540;2023-02-08T03:45:11;38.40;;;19.80;;
68076;SDS011;54866;53.458;14.540;2023-02-08T03:47:44;32.60;;;19.40;;
68076;SDS011;54866;53.458;14.540;2023-02-08T03:50:16;38.20;;;20.30;;
68076;SDS011;54866;53.458;14.540;2023-02-08T03:52:49;36.90;;;21.00;;
68076;SDS011;54866;53.458;14.540;2023-02-08T03:55:20;36.60;;;19.80;;
68076;SDS011;54866;53.458;14.540;2023-02-08T03:57:54;35.00;;;20.30;;
68076;SDS011;54866;53.458;14.540;2023-02-08T04:00:30;40.70;;;21.30;;
68076;SDS011;54866;53.458;14.540;2023-02-08T04:03:05;39.20;;;22.20;;
68076;SDS011;54866;53.458;14.540;2023-02-08T04:05:39;35.20;;;21.20;;
68076;SDS011;54866;53.458;14.540;2023-02-08T04:08:09;33.70;;;21.10;;
68076;SDS011;54866;53.458;14.540;2023-02-08T04:10:39;41.60;;;22.60;;
68076;SDS011;54866;53.458;14.540;2023-02-08T04:13:08;33.90;;;19.20;;
68076;SDS011;54866;53.458;14.540;2023-02-08T04:15:37;40.20;;;21.10;;
68076;SDS011;54866;53.458;14.540;2023-02-08T04:18:07;39.30;;;22.00;;
68076;SDS011;54866;53.458;14.540;2023-02-08T04:20:36;44.40;;;24.00;;
68076;SDS011;54866;53.458;14.540;2023-02-08T04:23:05;45.80;;;25.40;;
68076;SDS011;54866;53.458;14.540;2023-02-08T04:25:35;45.60;;;25.70;;
68076;SDS011;54866;53.458;14.540;2023-02-08T04:28:04;39.90;;;26.20;;
68076;SDS011;54866;53.458;14.540;2023-02-08T04:30:33;41.90;;;24.00;;
68076;SDS011;54866;53.458;14.540;2023-02-08T04:33:03;40.90;;;24.30;;
68076;SDS011;54866;53.458;14.540;2023-02-08T04:35:32;37.20;;;22.90;;
68076;SDS011;54866;53.458;14.540;2023-02-08T04:38:01;41.60;;;21.00;;
68076;SDS011;54866;53.458;14.540;2023-02-08T04:40:31;44.10;;;25.90;;
68076;SDS011;54866;53.458;14.540;2023-02-08T04:43:00;42.20;;;21.30;;
68076;SDS011;54866;53.458;14.540;2023-02-08T04:45:29;36.40;;;22.10;;
68076;SDS011;54866;53.458;14.540;2023-02-08T04:47:59;44.80;;;22.80;;
68076;SDS011;54866;53.458;14.540;2023-02-08T04:50:29;48.90;;;25.50;;
68076;SDS011;54866;53.458;14.540;2023-02-08T04:52:58;45.60;;;23.80;;
68076;SDS011;54866;53.458;14.540;2023-02-08T04:55:28;38.60;;;22.00;;
68076;SDS011;54866;53.458;14.540;2023-02-08T04:57:57;46.30;;;23.40;;
68076;SDS011;54866;53.458;14.540;2023-02-08T05:00:27;37.80;;;20.00;;
68076;SDS011;54866;53.458;14.540;2023-02-08T05:02:57;39.10;;;23.20;;
68076;SDS011;54866;53.458;14.540;2023-02-08T05:05:26;39.90;;;21.90;;
68076;SDS011;54866;53.458;14.540;2023-02-08T05:07:56;34.10;;;19.70;;
68076;SDS011;54866;53.458;14.540;2023-02-08T05:10:25;36.30;;;21.20;;
68076;SDS011;54866;53.458;14.540;2023-02-08T05:12:55;36.40;;;18.50;;
68076;SDS011;54866;53.458;14.540;2023-02-08T05:15:24;34.40;;;20.30;;
68076;SDS011;54866;53.458;14.540;2023-02-08T05:17:54;30.30;;;18.50;;
68076;SDS011;54866;53.458;14.540;2023-02-08T05:20:23;33.50;;;19.30;;
68076;SDS011;54866;53.458;14.540;2023-02-08T05:22:52;37.30;;;20.40;;
68076;SDS011;54866;53.458;14.540;2023-02-08T05:25:21;36.00;;;21.70;;
68076;SDS011;54866;53.458;14.540;2023-02-08T05:27:51;31.40;;;17.90;;
68076;SDS011;54866;53.458;14.540;2023-02-08T05:30:20;36.00;;;20.00;;
68076;SDS011;54866;53.458;14.540;2023-02-08T05:32:50;35.60;;;19.80;;
68076;SDS011;54866;53.458;14.540;2023-02-08T05:35:19;32.10;;;19.80;;
68076;SDS011;54866;53.458;14.540;2023-02-08T05:37:48;35.80;;;19.00;;
68076;SDS011;54866;53.458;14.540;2023-02-08T05:40:18;37.40;;;19.20;;
68076;SDS011;54866;53.458;14.540;2023-02-08T05:42:47;34.50;;;21.60;;
68076;SDS011;54866;53.458;14.540;2023-02-08T05:45:17;38.40;;;22.40;;
68076;SDS011;54866;53.458;14.540;2023-02-08T05:47:46;35.40;;;20.80;;
68076;SDS011;54866;53.458;14.540;2023-02-08T05:50:15;40.00;;;20.90;;
68076;SDS011;54866;53.458;14.540;2023-02-08T05:52:45;37.00;;;21.10;;
68076;SDS011;54866;53.458;14.540;2023-02-08T05:55:14;38.10;;;21.00;;
68076;SDS011;54866;53.458;14.540;2023-02-08T05:57:43;42.50;;;24.30;;
68076;SDS011;54866;53.458;14.540;2023-02-08T06:00:14;43.20;;;25.90;;
68076;SDS011;54866;53.458;14.540;2023-02-08T06:02:45;36.40;;;23.80;;
68076;SDS011;54866;53.458;14.540;2023-02-08T06:05:14;38.50;;;24.80;;
68076;SDS011;54866;53.458;14.540;2023-02-08T06:07:44;36.50;;;20.50;;
68076;SDS011;54866;53.458;14.540;2023-02-08T06:10:13;32.00;;;19.30;;
68076;SDS011;54866;53.458;14.540;2023-02-08T06:12:43;35.60;;;19.90;;
68076;SDS011;54866;53.458;14.540;2023-02-08T06:15:12;37.10;;;23.00;;
68076;SDS011;54866;53.458;14.540;2023-02-08T06:17:42;42.00;;;23.40;;
68076;SDS011;54866;53.458;14.540;2023-02-08T06:20:11;40.60;;;24.20;;
68076;SDS011;54866;53.458;14.540;2023-02-08T06:22:41;38.80;;;24.00;;
68076;SDS011;54866;53.458;14.540;2023-02-08T06:25:10;36.00;;;21.50;;
68076;SDS011;54866;53.458;14.540;2023-02-08T06:27:39;36.50;;;22.20;;
68076;SDS011;54866;53.458;14.540;2023-02-08T06:30:11;36.30;;;18.80;;
68076;SDS011;54866;53.458;14.540;2023-02-08T06:32:41;27.00;;;17.40;;
68076;SDS011;54866;53.458;14.540;2023-02-08T06:35:10;34.00;;;20.40;;
68076;SDS011;54866;53.458;14.540;2023-02-08T06:37:39;35.40;;;21.70;;
68076;SDS011;54866;53.458;14.540;2023-02-08T06:40:09;36.50;;;20.40;;
68076;SDS011;54866;53.458;14.540;2023-02-08T06:42:39;35.70;;;20.60;;
68076;SDS011;54866;53.458;14.540;2023-02-08T06:45:09;36.80;;;19.10;;
68076;SDS011;54866;53.458;14.540;2023-02-08T06:47:38;38.10;;;19.10;;
68076;SDS011;54866;53.458;14.540;2023-02-08T06:50:08;39.80;;;22.30;;
68076;SDS011;54866;53.458;14.540;2023-02-08T06:52:38;35.70;;;22.30;;
68076;SDS011;54866;53.458;14.540;2023-02-08T06:55:08;38.80;;;23.10;;
68076;SDS011;54866;53.458;14.540;2023-02-08T06:57:37;38.90;;;20.80;;
68076;SDS011;54866;53.458;14.540;2023-02-08T07:00:07;36.10;;;20.00;;
68076;SDS011;54866;53.458;14.540;2023-02-08T07:02:38;34.30;;;21.60;;
68076;SDS011;54866;53.458;14.540;2023-02-08T07:05:08;32.10;;;20.40;;
68076;SDS011;54866;53.458;14.540;2023-02-08T07:07:37;36.90;;;22.20;;
68076;SDS011;54866;53.458;14.540;2023-02-08T07:10:07;33.90;;;22.50;;
68076;SDS011;54866;53.458;14.540;2023-02-08T07:12:37;34.10;;;20.20;;
68076;SDS011;54866;53.458;14.540;2023-02-08T07:15:07;35.80;;;23.90;;
68076;SDS011;54866;53.458;14.540;2023-02-08T07:17:38;30.50;;;22.10;;
68076;SDS011;54866;53.458;14.540;2023-02-08T07:20:09;31.70;;;21.90;;
68076;SDS011;54866;53.458;14.540;2023-02-08T07:22:39;33.30;;;24.00;;
68076;SDS011;54866;53.458;14.540;2023-02-08T07:25:09;29.90;;;22.10;;
68076;SDS011;54866;53.458;14.540;2023-02-08T07:27:38;31.10;;;22.70;;
68076;SDS011;54866;53.458;14.540;2023-02-08T07:30:09;33.10;;;24.80;;
68076;SDS011;54866;53.458;14.540;2023-02-08T07:32:39;29.40;;;23.00;;
68076;SDS011;54866;53.458;14.540;2023-02-08T07:35:08;31.10;;;24.40;;
68076;SDS011;54866;53.458;14.540;2023-02-08T07:37:38;31.70;;;25.70;;
68076;SDS011;54866;53.458;14.540;2023-02-08T07:40:08;32.60;;;26.20;;
68076;SDS011;54866;53.458;14.540;2023-02-08T07:42:39;29.80;;;24.70;;
68076;SDS011;54866;53.458;14.540;2023-02-08T07:45:08;30.90;;;26.40;;
68076;SDS011;54866;53.458;14.540;2023-02-08T07:47:38;33.50;;;26.70;;
68076;SDS011;54866;53.458;14.540;2023-02-08T07:50:07;31.10;;;26.40;;
68076;SDS011;54866;53.458;14.540;2023-02-08T07:52:36;30.20;;;26.00;;
68076;SDS011;54866;53.458;14.540;2023-02-08T07:55:08;32.40;;;27.50;;
68076;SDS011;54866;53.458;14.540;2023-02-08T07:57:42;35.30;;;27.20;;
68076;SDS011;54866;53.458;14.540;2023-02-08T08:00:14;33.20;;;25.70;;
68076;SDS011;54866;53.458;14.540;2023-02-08T08:02:45;34.20;;;27.80;;
68076;SDS011;54866;53.458;14.540;2023-02-08T08:05:16;35.00;;;28.30;;
68076;SDS011;54866;53.458;14.540;2023-02-08T08:07:46;32.70;;;27.80;;
68076;SDS011;54866;53.458;14.540;2023-02-08T08:10:15;34.20;;;27.60;;
68076;SDS011;54866;53.458;14.540;2023-02-08T08:12:45;33.20;;;29.10;;
68076;SDS011;54866;53.458;14.540;2023-02-08T08:15:14;32.10;;;27.80;;
68076;SDS011;54866;53.458;14.540;2023-02-08T08:17:43;33.60;;;30.00;;
68076;SDS011;54866;53.458;14.540;2023-02-08T08:20:12;31.20;;;27.90;;
68076;SDS011;54866;53.458;14.540;2023-02-08T08:22:42;40.00;;;28.40;;
68076;SDS011;54866;53.458;14.540;2023-02-08T08:25:11;32.00;;;28.70;;
68076;SDS011;54866;53.458;14.540;2023-02-08T08:27:41;32.60;;;29.20;;
68076;SDS011;54866;53.458;14.540;2023-02-08T08:30:12;30.40;;;27.20;;
68076;SDS011;54866;53.458;14.540;2023-02-08T08:32:43;32.30;;;29.20;;
68076;SDS011;54866;53.458;14.540;2023-02-08T08:35:13;28.60;;;25.70;;
68076;SDS011;54866;53.458;14.540;2023-02-08T08:37:42;30.00;;;27.00;;
68076;SDS011;54866;53.458;14.540;2023-02-08T08:40:12;29.40;;;26.60;;
68076;SDS011;54866;53.458;14.540;2023-02-08T08:42:41;29.80;;;26.80;;
68076;SDS011;54866;53.458;14.540;2023-02-08T08:45:11;31.20;;;28.10;;
68076;SDS011;54866;53.458;14.540;2023-02-08T08:47:41;32.10;;;28.80;;
68076;SDS011;54866;53.458;14.540;2023-02-08T08:50:10;29.90;;;26.70;;
68076;SDS011;54866;53.458;14.540;2023-02-08T08:52:40;31.10;;;27.90;;
68076;SDS011;54866;53.458;14.540;2023-02-08T08:55:09;30.10;;;27.00;;
68076;SDS011;54866;53.458;14.540;2023-02-08T08:57:38;33.20;;;29.90;;
68076;SDS011;54866;53.458;14.540;2023-02-08T09:00:09;30.10;;;27.00;;
68076;SDS011;54866;53.458;14.540;2023-02-08T09:02:39;34.40;;;31.00;;
68076;SDS011;54866;53.458;14.540;2023-02-08T09:05:09;32.20;;;28.90;;
68076;SDS011;54866;53.458;14.540;2023-02-08T09:07:38;31.30;;;28.10;;
68076;SDS011;54866;53.458;14.540;2023-02-08T09:10:08;31.60;;;27.80;;
68076;SDS011;54866;53.458;14.540;2023-02-08T09:12:37;29.80;;;26.60;;
68076;SDS011;54866;53.458;14.540;2023-02-08T09:15:07;31.80;;;28.50;;
68076;SDS011;54866;53.458;14.540;2023-02-08T09:17:37;33.90;;;28.30;;
68076;SDS011;54866;53.458;14.540;2023-02-08T09:20:07;28.80;;;25.80;;
68076;SDS011;54866;53.458;14.540;2023-02-08T09:22:38;30.30;;;27.20;;
68076;SDS011;54866;53.458;14.540;2023-02-08T09:25:07;28.80;;;25.50;;
68076;SDS011;54866;53.458;14.540;2023-02-08T09:27:37;29.80;;;26.70;;
68076;SDS011;54866;53.458;14.540;2023-02-08T09:30:07;28.70;;;25.80;;
68076;SDS011;54866;53.458;14.540;2023-02-08T09:32:37;30.20;;;25.40;;
68076;SDS011;54866;53.458;14.540;2023-02-08T09:35:07;27.50;;;24.70;;
68076;SDS011;54866;53.458;14.540;2023-02-08T09:37:38;27.90;;;25.00;;
68076;SDS011;54866;53.458;14.540;2023-02-08T09:40:11;27.40;;;24.50;;
68076;SDS011;54866;53.458;14.540;2023-02-08T09:42:48;25.40;;;22.70;;
68076;SDS011;54866;53.458;14.540;2023-02-08T09:45:30;27.00;;;24.20;;
68076;SDS011;54866;53.458;14.540;2023-02-08T09:48:17;28.60;;;25.70;;
68076;SDS011;54866;53.458;14.540;2023-02-08T09:50:51;28.70;;;24.30;;
68076;SDS011;54866;53.458;14.540;2023-02-08T09:55:56;26.30;;;22.40;;
68076;SDS011;54866;53.458;14.540;2023-02-08T09:58:29;26.10;;;23.30;;
68076;SDS011;54866;53.458;14.540;2023-02-08T10:01:03;23.70;;;21.10;;
68076;SDS011;54866;53.458;14.540;2023-02-08T10:03:37;26.70;;;23.00;;
68076;SDS011;54866;53.458;14.540;2023-02-08T10:06:11;27.60;;;22.70;;
68076;SDS011;54866;53.458;14.540;2023-02-08T10:08:42;28.70;;;22.70;;
68076;SDS011;54866;53.458;14.540;2023-02-08T10:11:26;25.60;;;21.50;;
68076;SDS011;54866;53.458;14.540;2023-02-08T10:17:04;26.90;;;23.20;;
68076;SDS011;54866;53.458;14.540;2023-02-08T10:19:54;24.90;;;22.30;;
68076;SDS011;54866;53.458;14.540;2023-02-08T10:22:34;23.90;;;20.40;;
68076;SDS011;54866;53.458;14.540;2023-02-08T10:25:21;25.10;;;21.80;;
68076;SDS011;54866;53.458;14.540;2023-02-08T10:28:14;25.60;;;21.40;;
68076;SDS011;54866;53.458;14.540;2023-02-08T10:30:51;20.90;;;18.00;;
68076;SDS011;54866;53.458;14.540;2023-02-08T10:33:28;23.10;;;20.30;;
68076;SDS011;54866;53.458;14.540;2023-02-08T10:36:06;22.00;;;17.80;;
68076;SDS011;54866;53.458;14.540;2023-02-08T10:38:40;22.20;;;19.30;;
68076;SDS011;54866;53.458;14.540;2023-02-08T10:41:11;24.30;;;19.90;;
68076;SDS011;54866;53.458;14.540;2023-02-08T10:43:45;24.70;;;19.20;;
68076;SDS011;54866;53.458;14.540;2023-02-08T10:46:23;21.50;;;18.10;;
68076;SDS011;54866;53.458;14.540;2023-02-08T10:49:02;23.30;;;20.10;;
68076;SDS011;54866;53.458;14.540;2023-02-08T10:51:39;21.80;;;18.80;;
68076;SDS011;54866;53.458;14.540;2023-02-08T10:54:10;25.90;;;19.10;;
68076;SDS011;54866;53.458;14.540;2023-02-08T10:56:42;21.00;;;18.30;;
68076;SDS011;54866;53.458;14.540;2023-02-08T10:59:17;22.80;;;18.40;;
68076;SDS011;54866;53.458;14.540;2023-02-08T11:01:49;20.90;;;17.30;;
68076;SDS011;54866;53.458;14.540;2023-02-08T11:04:19;22.00;;;18.70;;
68076;SDS011;54866;53.458;14.540;2023-02-08T11:06:49;20.10;;;17.50;;
68076;SDS011;54866;53.458;14.540;2023-02-08T11:09:21;22.90;;;18.70;;
68076;SDS011;54866;53.458;14.540;2023-02-08T11:11:52;24.00;;;19.60;;
68076;SDS011;54866;53.458;14.540;2023-02-08T11:14:24;23.70;;;18.60;;
68076;SDS011;54866;53.458;14.540;2023-02-08T11:16:57;24.70;;;19.60;;
68076;SDS011;54866;53.458;14.540;2023-02-08T11:19:32;24.20;;;21.70;;
68076;SDS011;54866;53.458;14.540;2023-02-08T11:22:12;26.10;;;18.60;;
68076;SDS011;54866;53.458;14.540;2023-02-08T11:24:45;26.30;;;20.40;;
68076;SDS011;54866;53.458;14.540;2023-02-08T11:27:31;24.90;;;20.00;;
68076;SDS011;54866;53.458;14.540;2023-02-08T11:30:19;25.00;;;20.00;;
68076;SDS011;54866;53.458;14.540;2023-02-08T11:33:07;25.10;;;20.60;;
68076;SDS011;54866;53.458;14.540;2023-02-08T11:35:43;22.60;;;18.30;;
68076;SDS011;54866;53.458;14.540;2023-02-08T11:38:25;21.90;;;18.70;;
68076;SDS011;54866;53.458;14.540;2023-02-08T11:40:56;24.20;;;17.80;;
68076;SDS011;54866;53.458;14.540;2023-02-08T11:43:29;25.50;;;18.20;;
68076;SDS011;54866;53.458;14.540;2023-02-08T11:46:00;24.70;;;18.30;;
68076;SDS011;54866;53.458;14.540;2023-02-08T11:48:34;24.90;;;20.50;;
68076;SDS011;54866;53.458;14.540;2023-02-08T11:51:08;22.40;;;13.80;;
68076;SDS011;54866;53.458;14.540;2023-02-08T11:53:49;23.50;;;18.80;;
68076;SDS011;54866;53.458;14.540;2023-02-08T11:56:20;22.40;;;18.80;;
68076;SDS011;54866;53.458;14.540;2023-02-08T11:58:56;25.10;;;19.70;;
68076;SDS011;54866;53.458;14.540;2023-02-08T12:01:32;24.70;;;18.80;;
68076;SDS011;54866;53.458;14.540;2023-02-08T12:04:04;22.40;;;18.00;;
68076;SDS011;54866;53.458;14.540;2023-02-08T12:06:44;22.20;;;18.00;;
68076;SDS011;54866;53.458;14.540;2023-02-08T12:09:45;20.60;;;17.10;;
68076;SDS011;54866;53.458;14.540;2023-02-08T12:12:31;24.90;;;18.10;;
68076;SDS011;54866;53.458;14.540;2023-02-08T12:15:14;23.50;;;17.80;;
68076;SDS011;54866;53.458;14.540;2023-02-08T12:17:57;22.20;;;17.90;;
68076;SDS011;54866;53.458;14.540;2023-02-08T12:20:37;22.90;;;17.10;;
68076;SDS011;54866;53.458;14.540;2023-02-08T12:26:11;24.50;;;19.10;;
68076;SDS011;54866;53.458;14.540;2023-02-08T12:28:55;22.80;;;18.70;;
68076;SDS011;54866;53.458;14.540;2023-02-08T12:31:40;22.00;;;18.80;;
68076;SDS011;54866;53.458;14.540;2023-02-08T12:34:20;23.60;;;18.50;;
68076;SDS011;54866;53.458;14.540;2023-02-08T12:37:00;22.20;;;17.90;;
68076;SDS011;54866;53.458;14.540;2023-02-08T12:39:55;24.10;;;19.10;;
68076;SDS011;54866;53.458;14.540;2023-02-08T12:42:55;24.80;;;20.10;;
68076;SDS011;54866;53.458;14.540;2023-02-08T12:45:46;27.00;;;19.90;;
68076;SDS011;54866;53.458;14.540;2023-02-08T12:48:30;25.20;;;20.00;;
68076;SDS011;54866;53.458;14.540;2023-02-08T12:51:15;22.50;;;18.00;;
68076;SDS011;54866;53.458;14.540;2023-02-08T12:53:53;25.10;;;18.80;;
68076;SDS011;54866;53.458;14.540;2023-02-08T12:58:56;26.30;;;21.90;;
68076;SDS011;54866;53.458;14.540;2023-02-08T13:01:28;25.30;;;19.70;;
68076;SDS011;54866;53.458;14.540;2023-02-08T13:04:02;23.70;;;19.50;;
68076;SDS011;54866;53.458;14.540;2023-02-08T13:06:37;23.40;;;19.00;;
68076;SDS011;54866;53.458;14.540;2023-02-08T13:09:12;26.10;;;21.10;;
68076;SDS011;54866;53.458;14.540;2023-02-08T13:11:47;24.80;;;19.00;;
68076;SDS011;54866;53.458;14.540;2023-02-08T13:14:25;24.30;;;19.40;;
68076;SDS011;54866;53.458;14.540;2023-02-08T13:17:00;23.70;;;18.20;;
68076;SDS011;54866;53.458;14.540;2023-02-08T13:19:37;22.70;;;18.70;;
68076;SDS011;54866;53.458;14.540;2023-02-08T13:22:21;26.80;;;19.20;;
68076;SDS011;54866;53.458;14.540;2023-02-08T13:24:51;25.50;;;19.50;;
68076;SDS011;54866;53.458;14.540;2023-02-08T13:27:21;23.90;;;19.30;;
68076;SDS011;54866;53.458;14.540;2023-02-08T13:29:51;26.40;;;19.60;;
68076;SDS011;54866;53.458;14.540;2023-02-08T13:32:22;25.10;;;18.50;;
68076;SDS011;54866;53.458;14.540;2023-02-08T13:34:57;25.10;;;18.10;;
68076;SDS011;54866;53.458;14.540;2023-02-08T13:37:30;27.30;;;23.20;;
68076;SDS011;54866;53.458;14.540;2023-02-08T13:40:03;26.10;;;20.80;;
68076;SDS011;54866;53.458;14.540;2023-02-08T13:42:47;25.50;;;22.10;;
68076;SDS011;54866;53.458;14.540;2023-02-08T13:45:24;23.20;;;18.50;;
68076;SDS011;54866;53.458;14.540;2023-02-08T13:47:56;27.50;;;19.00;;
68076;SDS011;54866;53.458;14.540;2023-02-08T13:50:39;23.20;;;17.40;;
68076;SDS011;54866;53.458;14.540;2023-02-08T13:53:11;28.90;;;21.90;;
68076;SDS011;54866;53.458;14.540;2023-02-08T13:58:36;29.90;;;21.30;;
68076;SDS011;54866;53.458;14.540;2023-02-08T14:01:21;24.40;;;20.00;;
68076;SDS011;54866;53.458;14.540;2023-02-08T14:06:55;29.40;;;21.30;;
68076;SDS011;54866;53.458;14.540;2023-02-08T14:09:32;27.80;;;19.00;;
68076;SDS011;54866;53.458;14.540;2023-02-08T14:12:12;28.60;;;22.60;;
68076;SDS011;54866;53.458;14.540;2023-02-08T14:17:48;27.70;;;19.40;;
68076;SDS011;54866;53.458;14.540;2023-02-08T14:20:21;28.90;;;20.80;;
68076;SDS011;54866;53.458;14.540;2023-02-08T14:22:54;31.30;;;21.50;;
68076;SDS011;54866;53.458;14.540;2023-02-08T14:25:26;27.90;;;19.60;;
68076;SDS011;54866;53.458;14.540;2023-02-08T14:28:06;24.90;;;19.70;;
68076;SDS011;54866;53.458;14.540;2023-02-08T14:30:52;30.40;;;21.50;;
68076;SDS011;54866;53.458;14.540;2023-02-08T14:33:25;25.80;;;20.80;;
68076;SDS011;54866;53.458;14.540;2023-02-08T14:35:57;29.40;;;21.00;;
68076;SDS011;54866;53.458;14.540;2023-02-08T14:38:35;27.80;;;19.10;;
68076;SDS011;54866;53.458;14.540;2023-02-08T14:50:32;28.10;;;19.70;;
68076;SDS011;54866;53.458;14.540;2023-02-08T14:53:15;31.00;;;20.10;;
68076;SDS011;54866;53.458;14.540;2023-02-08T14:55:55;27.90;;;20.10;;
68076;SDS011;54866;53.458;14.540;2023-02-08T14:58:30;28.40;;;22.60;;
68076;SDS011;54866;53.458;14.540;2023-02-08T15:01:02;30.90;;;21.10;;
68076;SDS011;54866;53.458;14.540;2023-02-08T15:03:40;34.10;;;24.60;;
68076;SDS011;54866;53.458;14.540;2023-02-08T15:09:14;27.90;;;18.10;;
68076;SDS011;54866;53.458;14.540;2023-02-08T15:11:52;31.00;;;20.00;;
68076;SDS011;54866;53.458;14.540;2023-02-08T15:14:28;33.50;;;21.10;;
68076;SDS011;54866;53.458;14.540;2023-02-08T15:17:00;35.40;;;22.70;;
68076;SDS011;54866;53.458;14.540;2023-02-08T15:19:30;41.90;;;26.00;;
68076;SDS011;54866;53.458;14.540;2023-02-08T15:24:51;33.90;;;24.10;;
68076;SDS011;54866;53.458;14.540;2023-02-08T15:27:23;32.70;;;19.70;;